Kearney, NE

10:11 AM CDT on September 02, 2014 (GMT -0500)
Regency | Change Station
CLOSE
Current Station
Personal Weather Station
Location: Kearney, NE
Elevation: 2224 ft
Nearby Weather Stations

Elev 2224 ft 40.72 °N, 99.08 °W | Updated 12 seconds ago

Clear
Clear
63.2 °F
Feels Like 63.2 °F
N
3.3
Wind Variable Wind from WSW
Gusts 4.6 mph

Today
High -- | Low -- °F
--% Chance of Precip.
Yesterday
High -- | Low -- °F
Precip. -- in
7:04 AM 8:07 PM
First Quarter, 52% visible
Pressure 30.07 in
Visibility 10.0 miles
Clouds Clear
Dew Point 57 °F
Humidity 79%
Rainfall 0.00 in
Snow Depth Not available.
UV 3 out of 12
Pollen 9.90 out of 12
Air Quality Not available.
Flu Activity Not available.
METAR KEAR 021455Z AUTO 31003KT 10SM CLR 18/13 A3007 RMK AO1 52024

More Conditions Fewer Conditions

Pressure 30.07 in
Visibility 10.0 miles
Clouds Clear
Dew Point 57 °F
Humidity 79%
Rainfall 0.00 in
Snow Depth Not available.
UV 3 out of 12
Pollen 9.90 out of 12
Air Quality Not available.
Flu Activity Not available.
METAR KEAR 021455Z AUTO 31003KT 10SM CLR 18/13 A3007 RMK AO1 52024

More Conditions Fewer Conditions

10-Day Weather Forecast

Almanac

Astronomy

Sep. 02, 2014 Rise Set
Actual Time 7:04 AM CDT 8:07 PM CDT
Civil Twilight 6:36 AM CDT 8:35 PM CDT
Nautical Twilight 6:03 AM CDT 9:08 PM CDT
Astronomical Twilight 5:28 AM CDT 9:43 PM CDT
Moon 2:53 PM CDT 12:08 AM CDT
Length of Visible Light 13h 58m
Length of Day
13h 02m
Tomorrow will be 2m 36s shorter.
First Quarter, 52% of the Moon is Illuminated
Today
First Quarter
Sep 8
Full
Sep 15
Last Quarter
Sep 24
New
Oct 1
First Quarter

Today's Extremes

State Highs State Lows

Community

WunderPhotos

Upload Photos

1,749,690 photos uploaded!

WunderBlogs® & News

Nearby

Snow Depth

Station Depth Elevation
No new snow has been reported.

Earthquake Activity

City Distance Mag. Time & Date
No recent earthquake activity has been reported nearby.
Minimum magnitude displayed is 2.5.

Coastal Water Temperatures

Place Temperature
No Stations Reporting

Nearby Weather Stations